Time;durP1;ratioP1;P1;durP2;ratioP2;P2;SDS_P1;SDS_P2;PMS_P1;PMS_P2;Temp;Humidity;BMP_temperature;BMP_pressure;BME280_temperature;BME280_humidity;BME280_pressure;Samples;Min_cycle;Max_cycle;Signal;HPM_P1;HPM_P2
2023/01/02 00:00:37;;;;;;;2.53;1.55;;;;;;;;;;5025984;28;20033;-76
2023/01/02 00:03:03;;;;;;;2.78;1.63;;;;;;;;;;5026179;28;20037;-76
2023/01/02 00:05:29;;;;;;;1.48;1.27;;;;;;;;;;5030219;28;20025;-76
2023/01/02 00:07:55;;;;;;;2.65;1.80;;;;;;;;;;5028023;28;20034;-76
2023/01/02 00:10:21;;;;;;;2.22;1.70;;;;;;;;;;5030545;28;20017;-76
2023/01/02 00:12:47;;;;;;;2.30;1.40;;;;;;;;;;5033464;28;20022;-76
2023/01/02 00:15:13;;;;;;;3.38;1.55;;;;;;;;;;5044739;28;20385;-76
2023/01/02 00:17:38;;;;;;;2.75;1.63;;;;;;;;;;5028626;28;20487;-76
2023/01/02 00:20:05;;;;;;;2.58;1.40;;;;;;;;;;5027639;28;20092;-76
2023/01/02 00:22:31;;;;;;;4.88;1.55;;;;;;;;;;5052962;28;20451;-76
2023/01/02 00:24:57;;;;;;;2.22;1.52;;;;;;;;;;5035349;28;20025;-76
2023/01/02 00:27:23;;;;;;;3.15;1.85;;;;;;;;;;5029812;28;20392;-77
2023/01/02 00:29:49;;;;;;;5.88;1.50;;;;;;;;;;5033619;28;20021;-76
2023/01/02 00:32:15;;;;;;;2.60;1.70;;;;;;;;;;5028155;28;20033;-76
2023/01/02 00:34:41;;;;;;;3.42;1.73;;;;;;;;;;5027090;28;20049;-75
2023/01/02 00:37:07;;;;;;;1.90;1.40;;;;;;;;;;5026604;28;20034;-76
2023/01/02 00:39:32;;;;;;;3.30;1.73;;;;;;;;;;5024364;28;20037;-76
2023/01/02 00:41:58;;;;;;;2.78;1.90;;;;;;;;;;5027017;28;20041;-75
2023/01/02 00:44:24;;;;;;;2.60;1.65;;;;;;;;;;5028412;28;20064;-75
2023/01/02 00:46:50;;;;;;;3.28;1.50;;;;;;;;;;5028714;28;20024;-75
2023/01/02 00:49:16;;;;;;;2.20;1.58;;;;;;;;;;5028320;28;20074;-76
2023/01/02 00:51:42;;;;;;;2.38;1.35;;;;;;;;;;5028958;28;20435;-75
2023/01/02 00:54:08;;;;;;;2.28;1.35;;;;;;;;;;5028670;28;20036;-75
2023/01/02 00:56:34;;;;;;;7.13;1.35;;;;;;;;;;5028588;28;20029;-75
2023/01/02 00:59:00;;;;;;;2.78;1.58;;;;;;;;;;5028617;28;20036;-75
2023/01/02 01:01:26;;;;;;;1.55;1.25;;;;;;;;;;5028812;28;20057;-75
2023/01/02 01:03:52;;;;;;;8.23;1.77;;;;;;;;;;5029597;28;20026;-76
2023/01/02 01:06:20;;;;;;;1.83;1.17;;;;;;;;;;5030899;28;20496;-75
2023/01/02 01:08:46;;;;;;;1.58;1.23;;;;;;;;;;5019365;28;20018;-75
2023/01/02 01:11:14;;;;;;;1.73;1.30;;;;;;;;;;5020610;28;20033;-75
2023/01/02 01:13:40;;;;;;;2.13;1.40;;;;;;;;;;5024487;28;20033;-75
2023/01/02 01:16:07;;;;;;;2.00;1.27;;;;;;;;;;5026397;28;20036;-76
2023/01/02 01:18:33;;;;;;;1.83;1.30;;;;;;;;;;5023619;28;20395;-75
2023/01/02 01:21:04;;;;;;;2.10;1.40;;;;;;;;;;5025897;28;20029;-76
2023/01/02 01:23:30;;;;;;;;;;;;;;;;;;5024015;28;20037;-77
2023/01/02 01:25:56;;;;;;;2.40;1.30;;;;;;;;;;5025587;28;20404;-77
2023/01/02 01:28:22;;;;;;;2.42;1.42;;;;;;;;;;5019858;28;20400;-76
2023/01/02 01:30:48;;;;;;;1.38;1.23;;;;;;;;;;5033142;28;20025;-76
2023/01/02 01:33:14;;;;;;;2.33;1.30;;;;;;;;;;5026381;28;20029;-76
2023/01/02 01:35:40;;;;;;;1.77;1.25;;;;;;;;;;5026878;28;20083;-75
2023/01/02 01:38:06;;;;;;;2.85;1.30;;;;;;;;;;5027130;28;20033;-76
2023/01/02 01:40:39;;;;;;;1.77;1.40;;;;;;;;;;5028228;28;20033;-75
2023/01/02 01:43:10;;;;;;;1.65;1.52;;;;;;;;;;5025735;28;20029;-75
2023/01/02 01:45:35;;;;;;;1.88;1.30;;;;;;;;;;5027838;28;20021;-75
2023/01/02 01:48:01;;;;;;;1.45;1.02;;;;;;;;;;5028916;28;20056;-75
2023/01/02 01:50:31;;;;;;;2.13;1.20;;;;;;;;;;5026142;28;20116;-75
2023/01/02 01:53:06;;;;;;;2.22;1.60;;;;;;;;;;5041257;28;20044;-75
2023/01/02 01:55:46;;;;;;;1.20;1.00;;;;;;;;;;5027350;28;20049;-75
2023/01/02 01:58:13;;;;;;;3.50;1.45;;;;;;;;;;5017063;28;20022;-75
2023/01/02 02:00:40;;;;;;;1.38;1.02;;;;;;;;;;5025206;28;20037;-76
2023/01/02 02:03:10;;;;;;;1.67;1.30;;;;;;;;;;5027529;28;20460;-76
2023/01/02 02:05:37;;;;;;;3.30;1.42;;;;;;;;;;5025654;28;20025;-76
2023/01/02 02:08:20;;;;;;;2.95;1.52;;;;;;;;;;5028597;28;20124;-76
2023/01/02 02:10:46;;;;;;;2.28;1.40;;;;;;;;;;5024901;28;20030;-76
2023/01/02 02:13:12;;;;;;;1.65;1.38;;;;;;;;;;5026020;28;20021;-76
2023/01/02 02:15:54;;;;;;;2.90;1.10;;;;;;;;;;5038692;28;20025;-76
2023/01/02 02:18:29;;;;;;;1.52;1.13;;;;;;;;;;5025534;28;20083;-76
2023/01/02 02:21:14;;;;;;;1.92;1.23;;;;;;;;;;5030481;28;20025;-77
2023/01/02 02:23:48;;;;;;;2.80;1.30;;;;;;;;;;5019245;28;20033;-76
2023/01/02 02:26:23;;;;;;;2.40;1.48;;;;;;;;;;5025307;28;20033;-77
2023/01/02 02:28:55;;;;;;;2.30;1.33;;;;;;;;;;5063683;28;20029;-76
2023/01/02 02:31:38;;;;;;;3.22;1.27;;;;;;;;;;5030329;28;20025;-76
2023/01/02 02:34:25;;;;;;;2.13;1.48;;;;;;;;;;5020532;28;20584;-77
2023/01/02 02:36:56;;;;;;;1.30;1.15;;;;;;;;;;5022332;28;20040;-76
2023/01/02 02:39:40;;;;;;;1.40;1.20;;;;;;;;;;5027320;28;20526;-76
2023/01/02 02:42:11;;;;;;;1.55;1.23;;;;;;;;;;5026423;28;20049;-77
2023/01/02 02:44:53;;;;;;;1.48;1.17;;;;;;;;;;5027683;28;20034;-76
2023/01/02 02:47:30;;;;;;;3.35;1.30;;;;;;;;;;5028290;28;20114;-76
2023/01/02 02:49:58;;;;;;;2.10;1.30;;;;;;;;;;5025750;28;20488;-77
2023/01/02 02:52:33;;;;;;;1.27;1.10;;;;;;;;;;5026072;28;20034;-74
2023/01/02 02:55:12;;;;;;;1.98;1.25;;;;;;;;;;5027831;28;20053;-74
2023/01/02 02:57:39;;;;;;;2.00;1.35;;;;;;;;;;5026461;28;20029;-75
2023/01/02 03:00:06;;;;;;;1.75;1.27;;;;;;;;;;5027071;28;20344;-74
2023/01/02 03:02:32;;;;;;;2.53;1.30;;;;;;;;;;5026465;28;20127;-75
2023/01/02 03:05:00;;;;;;;2.08;1.40;;;;;;;;;;5028225;28;20508;-74
2023/01/02 03:07:37;;;;;;;1.45;1.15;;;;;;;;;;5024976;28;20400;-74
2023/01/02 03:10:17;;;;;;;2.97;1.40;;;;;;;;;;5024364;28;20411;-75
2023/01/02 03:13:10;;;;;;;2.97;1.50;;;;;;;;;;5028758;28;20037;-74
2023/01/02 03:15:51;;;;;;;2.63;1.17;;;;;;;;;;5044326;28;20030;-74
2023/01/02 03:18:22;;;;;;;2.50;1.10;;;;;;;;;;5027039;28;20425;-75
2023/01/02 03:20:52;;;;;;;2.05;1.30;;;;;;;;;;5037382;28;20060;-75
2023/01/02 03:23:20;;;;;;;1.50;1.20;;;;;;;;;;5034315;28;20400;-74
2023/01/02 03:25:47;;;;;;;1.83;1.40;;;;;;;;;;5029882;28;20117;-74
2023/01/02 03:28:15;;;;;;;2.20;1.50;;;;;;;;;;5034357;28;20083;-75
2023/01/02 03:30:42;;;;;;;1.75;1.10;;;;;;;;;;5028598;28;20043;-75
2023/01/02 03:33:09;;;;;;;3.50;1.30;;;;;;;;;;5031094;28;20026;-75
2023/01/02 03:35:43;;;;;;;2.55;1.33;;;;;;;;;;5029250;28;20180;-75
2023/01/02 03:38:35;;;;;;;1.25;1.05;;;;;;;;;;5034334;28;20029;-75
2023/01/02 03:41:10;;;;;;;1.52;1.00;;;;;;;;;;5027808;28;20048;-74
2023/01/02 03:43:39;;;;;;;2.10;1.20;;;;;;;;;;5026007;28;20055;-74
2023/01/02 03:46:12;;;;;;;1.73;1.50;;;;;;;;;;5028961;28;20030;-75
2023/01/02 03:48:38;;;;;;;1.92;1.35;;;;;;;;;;5027118;28;20124;-74
2023/01/02 03:51:04;;;;;;;1.55;1.10;;;;;;;;;;5031895;28;20034;-75
2023/01/02 03:53:31;;;;;;;1.45;1.10;;;;;;;;;;5045274;28;20113;-75
2023/01/02 03:56:05;;;;;;;1.90;1.23;;;;;;;;;;5029483;28;20030;-75
2023/01/02 03:58:34;;;;;;;1.90;1.40;;;;;;;;;;5031006;28;20099;-75
2023/01/02 04:01:06;;;;;;;1.45;1.20;;;;;;;;;;5029814;28;20069;-76
2023/01/02 04:03:31;;;;;;;;;;;;;;;;;;5036095;28;20083;-76
2023/01/02 04:06:10;;;;;;;1.15;1.00;;;;;;;;;;5027696;28;19955;-75
2023/01/02 04:08:39;;;;;;;1.55;1.20;;;;;;;;;;5026194;28;20083;-75
2023/01/02 04:11:07;;;;;;;1.73;1.33;;;;;;;;;;5031821;28;20021;-75
2023/01/02 04:13:44;;;;;;;2.17;1.40;;;;;;;;;;5038217;28;20050;-75
2023/01/02 04:16:12;;;;;;;1.33;1.10;;;;;;;;;;5028985;28;20057;-75
2023/01/02 04:18:41;;;;;;;1.30;1.20;;;;;;;;;;5034452;28;20033;-75
2023/01/02 04:21:09;;;;;;;2.10;1.30;;;;;;;;;;5036842;28;20039;-75
2023/01/02 04:24:01;;;;;;;2.53;1.40;;;;;;;;;;5028367;28;20055;-76
2023/01/02 04:26:31;;;;;;;1.50;1.08;;;;;;;;;;5030653;28;20038;-76
2023/01/02 04:28:58;;;;;;;1.75;1.35;;;;;;;;;;5030147;28;20033;-75
2023/01/02 04:31:36;;;;;;;2.00;1.42;;;;;;;;;;5030470;28;20028;-75
2023/01/02 04:34:03;;;;;;;2.80;1.20;;;;;;;;;;5031944;28;20045;-75
2023/01/02 04:36:29;;;;;;;1.35;1.25;;;;;;;;;;5035880;28;20061;-75
2023/01/02 04:38:55;;;;;;;1.48;1.10;;;;;;;;;;5037576;28;20636;-75
2023/01/02 04:41:25;;;;;;;1.42;1.10;;;;;;;;;;5027998;28;20546;-76
2023/01/02 04:43:52;;;;;;;1.50;1.20;;;;;;;;;;5028809;28;20046;-76
2023/01/02 04:46:18;;;;;;;4.35;1.33;;;;;;;;;;5034016;28;20021;-76
2023/01/02 04:48:44;;;;;;;2.45;1.10;;;;;;;;;;5026932;28;20029;-76
2023/01/02 04:51:10;;;;;;;2.58;1.40;;;;;;;;;;5027742;28;20024;-77
2023/01/02 04:53:36;;;;;;;1.83;1.40;;;;;;;;;;5029852;28;20325;-76
2023/01/02 04:56:02;;;;;;;1.75;1.00;;;;;;;;;;5032184;28;20112;-76
2023/01/02 04:58:28;;;;;;;2.08;1.83;;;;;;;;;;5027459;28;20040;-77
2023/01/02 05:04:05;;;;;;;1.10;1.00;;;;;;;;;;5027936;28;20064;-76
2023/01/02 05:06:32;;;;;;;1.20;0.98;;;;;;;;;;5029484;28;20029;-76
2023/01/02 05:08:58;;;;;;;3.10;1.40;;;;;;;;;;5026107;28;20090;-76
2023/01/02 05:11:24;;;;;;;1.40;1.20;;;;;;;;;;5030258;28;20485;-76
2023/01/02 05:13:50;;;;;;;2.63;1.40;;;;;;;;;;5043928;28;20082;-76
2023/01/02 05:16:16;;;;;;;1.50;1.17;;;;;;;;;;5038968;28;20032;-76
2023/01/02 05:18:42;;;;;;;1.52;1.02;;;;;;;;;;5024305;28;20538;-76
2023/01/02 05:23:54;;;;;;;2.15;1.30;;;;;;;;;;5027714;28;20126;-76
2023/01/02 05:26:20;;;;;;;1.55;1.17;;;;;;;;;;5028064;28;20029;-76
2023/01/02 05:28:46;;;;;;;1.70;1.17;;;;;;;;;;5028798;28;20060;-76
2023/01/02 05:31:12;;;;;;;1.30;1.15;;;;;;;;;;5027526;28;20095;-76
2023/01/02 05:33:38;;;;;;;1.55;1.25;;;;;;;;;;5029267;28;20045;-76
2023/01/02 05:36:05;;;;;;;1.52;1.30;;;;;;;;;;5027981;28;20087;-76
2023/01/02 05:38:32;;;;;;;1.42;1.20;;;;;;;;;;5027834;28;20032;-76
2023/01/02 05:40:59;;;;;;;1.17;1.08;;;;;;;;;;5026509;28;20037;-75
2023/01/02 05:43:25;;;;;;;1.67;1.10;;;;;;;;;;5023042;28;20034;-76
2023/01/02 05:45:51;;;;;;;1.92;1.33;;;;;;;;;;5027641;28;20044;-75
2023/01/02 05:48:17;;;;;;;2.22;1.40;;;;;;;;;;5028831;28;20158;-76
2023/01/02 05:50:46;;;;;;;2.58;1.48;;;;;;;;;;5024669;28;20424;-76
2023/01/02 05:53:11;;;;;;;2.67;1.45;;;;;;;;;;5030806;28;20024;-77
2023/01/02 05:55:37;;;;;;;1.38;1.20;;;;;;;;;;5033064;28;20025;-76
2023/01/02 05:58:03;;;;;;;1.70;1.25;;;;;;;;;;5027110;28;20037;-76
2023/01/02 06:00:29;;;;;;;1.38;1.13;;;;;;;;;;5030512;28;20095;-77
2023/01/02 06:02:55;;;;;;;3.20;1.40;;;;;;;;;;5024415;28;20025;-76
2023/01/02 06:05:21;;;;;;;1.67;1.30;;;;;;;;;;5021867;28;20053;-76
2023/01/02 06:07:47;;;;;;;1.42;1.20;;;;;;;;;;5028553;28;20484;-76
2023/01/02 06:10:13;;;;;;;1.83;1.35;;;;;;;;;;5037993;28;20476;-76
2023/01/02 06:12:39;;;;;;;1.67;1.00;;;;;;;;;;5024089;28;20029;-75
2023/01/02 06:15:05;;;;;;;2.10;1.17;;;;;;;;;;5027836;28;20022;-76
2023/01/02 06:17:32;;;;;;;1.70;1.20;;;;;;;;;;5026858;28;20025;-76
2023/01/02 06:19:58;;;;;;;1.85;1.10;;;;;;;;;;5020203;28;20039;-77
2023/01/02 06:22:24;;;;;;;1.63;1.40;;;;;;;;;;5025371;28;20121;-73
2023/01/02 06:24:50;;;;;;;1.88;1.27;;;;;;;;;;5025062;28;20399;-71
2023/01/02 06:27:16;;;;;;;2.30;1.27;;;;;;;;;;5035564;28;20412;-72
2023/01/02 06:29:42;;;;;;;1.92;1.30;;;;;;;;;;5027048;28;20045;-73
2023/01/02 06:32:08;;;;;;;3.42;1.58;;;;;;;;;;5024644;28;20120;-73
2023/01/02 06:34:34;;;;;;;2.42;1.35;;;;;;;;;;5034171;28;20044;-73
2023/01/02 06:37:00;;;;;;;2.20;1.20;;;;;;;;;;5027751;28;20476;-73
2023/01/02 06:39:26;;;;;;;2.67;1.65;;;;;;;;;;5026931;28;20457;-72
2023/01/02 06:41:52;;;;;;;1.40;1.17;;;;;;;;;;5031807;28;20476;-72
2023/01/02 06:44:18;;;;;;;4.88;1.30;;;;;;;;;;5032560;28;20472;-73
2023/01/02 06:46:44;;;;;;;2.03;1.40;;;;;;;;;;5025977;28;20026;-72
2023/01/02 06:49:10;;;;;;;1.85;1.05;;;;;;;;;;5025496;28;20400;-72
2023/01/02 06:51:36;;;;;;;2.20;1.40;;;;;;;;;;5024812;28;20443;-72
2023/01/02 06:54:02;;;;;;;3.33;1.30;;;;;;;;;;5027287;28;20388;-73
2023/01/02 06:56:28;;;;;;;2.65;1.40;;;;;;;;;;5029089;28;20037;-73
2023/01/02 06:58:53;;;;;;;1.92;1.35;;;;;;;;;;5031983;28;20037;-73
2023/01/02 07:01:20;;;;;;;1.63;1.15;;;;;;;;;;5029249;28;20052;-73
2023/01/02 07:03:46;;;;;;;1.38;0.98;;;;;;;;;;5022525;28;20095;-74
2023/01/02 07:06:13;;;;;;;2.80;1.40;;;;;;;;;;5028120;28;20022;-73
2023/01/02 07:08:40;;;;;;;1.67;1.35;;;;;;;;;;5031887;28;20025;-72
2023/01/02 07:11:08;;;;;;;2.42;1.27;;;;;;;;;;5030182;28;20083;-72
2023/01/02 07:13:34;;;;;;;3.63;1.33;;;;;;;;;;5037161;28;20021;-72
2023/01/02 07:16:04;;;;;;;3.05;1.30;;;;;;;;;;5038623;28;20017;-72
2023/01/02 07:18:30;;;;;;;1.88;1.30;;;;;;;;;;5038026;28;20087;-71
2023/01/02 07:20:56;;;;;;;2.05;1.40;;;;;;;;;;5027605;28;20060;-72
2023/01/02 07:23:22;;;;;;;1.67;1.23;;;;;;;;;;5030182;28;20061;-71
2023/01/02 07:25:52;;;;;;;2.90;1.52;;;;;;;;;;5036314;28;20029;-72
2023/01/02 07:28:18;;;;;;;2.93;1.50;;;;;;;;;;5046321;28;20101;-73
2023/01/02 07:30:44;;;;;;;4.05;1.33;;;;;;;;;;5029181;28;20037;-72
2023/01/02 07:33:10;;;;;;;2.15;1.00;;;;;;;;;;5031138;28;20036;-72
2023/01/02 07:35:36;;;;;;;3.70;1.30;;;;;;;;;;5032933;28;20041;-75
2023/01/02 07:38:02;;;;;;;3.08;1.33;;;;;;;;;;5029968;28;20025;-75
2023/01/02 07:40:28;;;;;;;1.77;1.35;;;;;;;;;;5030560;28;20029;-72
2023/01/02 07:42:54;;;;;;;1.80;1.20;;;;;;;;;;5034067;28;20037;-71
2023/01/02 07:45:20;;;;;;;1.67;1.27;;;;;;;;;;5030512;28;20114;-71
2023/01/02 07:47:46;;;;;;;2.60;1.50;;;;;;;;;;5025848;28;20025;-72
2023/01/02 07:50:12;;;;;;;5.75;2.22;;;;;;;;;;5034189;28;20087;-72
2023/01/02 07:52:38;;;;;;;1.08;1.00;;;;;;;;;;5027471;28;20109;-73
2023/01/02 07:55:04;;;;;;;3.55;1.33;;;;;;;;;;5032232;28;20033;-73
2023/01/02 07:57:30;;;;;;;2.55;1.42;;;;;;;;;;5030946;28;20058;-72
2023/01/02 07:59:56;;;;;;;1.73;1.30;;;;;;;;;;5031212;28;20049;-76
2023/01/02 08:02:22;;;;;;;1.92;1.20;;;;;;;;;;5028711;28;20033;-73
2023/01/02 08:04:48;;;;;;;1.73;1.40;;;;;;;;;;5029512;28;20034;-73
2023/01/02 08:07:14;;;;;;;2.08;1.20;;;;;;;;;;5029644;28;20112;-73
2023/01/02 08:09:40;;;;;;;2.30;1.30;;;;;;;;;;5028438;28;20094;-73
2023/01/02 08:12:06;;;;;;;2.30;1.45;;;;;;;;;;5034451;28;20025;-73
2023/01/02 08:14:32;;;;;;;3.13;1.55;;;;;;;;;;5035558;28;20208;-73
2023/01/02 08:16:58;;;;;;;2.17;1.40;;;;;;;;;;5034417;28;20021;-72
2023/01/02 08:19:24;;;;;;;2.13;1.35;;;;;;;;;;5035320;28;20039;-73
2023/01/02 08:21:50;;;;;;;3.75;1.27;;;;;;;;;;5036689;28;20032;-72
2023/01/02 08:24:15;;;;;;;2.38;1.15;;;;;;;;;;5029541;28;20026;-74
2023/01/02 08:26:41;;;;;;;1.27;1.17;;;;;;;;;;5027895;28;20043;-73
2023/01/02 08:29:08;;;;;;;2.00;1.40;;;;;;;;;;5028248;28;20041;-73
2023/01/02 08:31:34;;;;;;;2.00;1.23;;;;;;;;;;5030663;28;20017;-73
2023/01/02 08:34:00;;;;;;;1.80;1.10;;;;;;;;;;5026112;28;20056;-73
2023/01/02 08:36:26;;;;;;;2.72;1.60;;;;;;;;;;5025780;28;20034;-77
2023/01/02 08:38:52;;;;;;;3.78;1.65;;;;;;;;;;5032611;28;20472;-80
2023/01/02 08:41:31;;;;;;;2.58;1.50;;;;;;;;;;5035174;28;20038;-73
2023/01/02 08:43:57;;;;;;;2.97;1.42;;;;;;;;;;5027077;28;20534;-74
2023/01/02 08:46:23;;;;;;;2.03;1.02;;;;;;;;;;5031936;28;20029;-75
2023/01/02 08:48:49;;;;;;;1.30;1.10;;;;;;;;;;5027367;28;20548;-75
2023/01/02 08:51:15;;;;;;;1.63;1.13;;;;;;;;;;5026745;28;20033;-75
2023/01/02 08:53:41;;;;;;;1.98;1.25;;;;;;;;;;5032701;28;20021;-75
2023/01/02 08:56:16;;;;;;;1.30;1.02;;;;;;;;;;5026967;28;20025;-76
2023/01/02 08:58:42;;;;;;;2.17;1.25;;;;;;;;;;5032996;28;20063;-75
2023/01/02 09:01:08;;;;;;;1.60;1.00;;;;;;;;;;5033051;28;20028;-76
2023/01/02 09:03:34;;;;;;;1.48;1.10;;;;;;;;;;5026384;28;20132;-76
2023/01/02 09:06:00;;;;;;;1.50;1.10;;;;;;;;;;5028800;28;20071;-76
2023/01/02 09:08:26;;;;;;;2.75;1.38;;;;;;;;;;5028161;28;20507;-73
2023/01/02 09:10:52;;;;;;;2.05;1.27;;;;;;;;;;5025480;28;20104;-74
2023/01/02 09:13:24;;;;;;;2.60;1.25;;;;;;;;;;5023705;28;20460;-73
2023/01/02 09:15:51;;;;;;;3.80;1.63;;;;;;;;;;5025339;28;20040;-73
2023/01/02 09:18:17;;;;;;;2.20;1.30;;;;;;;;;;5025382;28;20501;-74
2023/01/02 09:20:42;;;;;;;1.17;1.08;;;;;;;;;;5020210;28;20033;-74
2023/01/02 09:23:08;;;;;;;6.68;1.50;;;;;;;;;;5031678;28;20361;-74
2023/01/02 09:25:34;;;;;;;2.42;1.30;;;;;;;;;;5033128;28;20384;-74
2023/01/02 09:28:00;;;;;;;2.17;1.40;;;;;;;;;;5031303;28;20095;-74
2023/01/02 09:30:26;;;;;;;1.83;1.27;;;;;;;;;;5029660;28;20022;-74
2023/01/02 09:32:53;;;;;;;3.17;1.45;;;;;;;;;;5028679;28;20120;-75
2023/01/02 09:35:22;;;;;;;2.00;1.60;;;;;;;;;;5028925;28;20053;-74
2023/01/02 09:37:48;;;;;;;3.13;1.98;;;;;;;;;;5024114;28;20392;-78
2023/01/02 09:40:14;;;;;;;2.35;1.33;;;;;;;;;;5025459;28;20026;-74
2023/01/02 09:42:40;;;;;;;3.95;1.70;;;;;;;;;;5027097;28;20041;-74
2023/01/02 09:45:07;;;;;;;1.88;1.38;;;;;;;;;;5015771;28;20030;-74
2023/01/02 09:47:33;;;;;;;2.28;1.70;;;;;;;;;;5023338;28;20088;-74
2023/01/02 09:50:04;;;;;;;1.73;1.48;;;;;;;;;;5023047;28;20036;-74
2023/01/02 09:52:37;;;;;;;4.25;1.70;;;;;;;;;;5029409;28;20022;-74
2023/01/02 09:55:04;;;;;;;3.78;2.03;;;;;;;;;;5036885;28;20554;-74
2023/01/02 09:57:33;;;;;;;1.95;1.70;;;;;;;;;;5022647;28;20025;-73
2023/01/02 09:59:59;;;;;;;2.55;1.60;;;;;;;;;;5014063;28;20037;-76
2023/01/02 10:02:33;;;;;;;4.82;2.95;;;;;;;;;;5019269;28;20025;-75
2023/01/02 10:05:17;;;;;;;4.53;2.83;;;;;;;;;;5025154;28;20567;-77
2023/01/02 10:07:52;;;;;;;8.68;2.78;;;;;;;;;;5026574;28;20018;-74
2023/01/02 10:10:27;;;;;;;3.92;2.55;;;;;;;;;;5025084;28;20108;-76
2023/01/02 10:13:11;;;;;;;4.75;2.28;;;;;;;;;;5031637;28;20064;-74
2023/01/02 10:15:38;;;;;;;6.03;2.40;;;;;;;;;;5028387;28;20060;-75
2023/01/02 10:18:13;;;;;;;8.02;2.80;;;;;;;;;;5025470;28;20373;-76
2023/01/02 10:20:41;;;;;;;3.72;2.42;;;;;;;;;;5028952;28;20025;-76
2023/01/02 10:23:17;;;;;;;4.13;2.75;;;;;;;;;;5024649;28;20045;-76
2023/01/02 10:25:45;;;;;;;7.45;2.78;;;;;;;;;;5029507;28;20055;-76
2023/01/02 10:28:17;;;;;;;8.02;2.45;;;;;;;;;;5019718;28;20033;-76
2023/01/02 10:30:48;;;;;;;4.10;2.50;;;;;;;;;;5021797;28;20384;-76
2023/01/02 10:33:25;;;;;;;6.43;2.40;;;;;;;;;;5036730;28;20040;-78
2023/01/02 10:35:53;;;;;;;5.80;2.78;;;;;;;;;;5026364;28;20133;-81
2023/01/02 10:38:20;;;;;;;8.10;3.70;;;;;;;;;;5037895;28;20108;-77
2023/01/02 10:40:47;;;;;;;8.60;3.95;;;;;;;;;;5019204;28;20476;-77
2023/01/02 10:43:14;;;;;;;7.00;3.50;;;;;;;;;;5026525;28;20495;-78
2023/01/02 10:45:40;;;;;;;9.95;3.67;;;;;;;;;;5031005;28;20037;-77
2023/01/02 10:48:06;;;;;;;7.45;3.15;;;;;;;;;;5023973;28;20031;-77
2023/01/02 10:50:37;;;;;;;8.88;3.45;;;;;;;;;;5040675;28;20025;-77
2023/01/02 10:53:04;;;;;;;10.43;3.33;;;;;;;;;;5029116;28;20044;-77
2023/01/02 10:55:32;;;;;;;5.72;2.95;;;;;;;;;;5030070;28;20392;-77
2023/01/02 10:58:02;;;;;;;4.60;3.30;;;;;;;;;;5031681;28;20030;-76
2023/01/02 11:00:30;;;;;;;4.67;3.50;;;;;;;;;;5028076;28;20033;-81
2023/01/02 11:02:58;;;;;;;9.38;3.15;;;;;;;;;;5023119;28;20118;-73
2023/01/02 11:05:25;;;;;;;5.55;3.22;;;;;;;;;;5030465;28;20033;-75
2023/01/02 11:07:52;;;;;;;6.00;3.47;;;;;;;;;;5042662;28;20570;-75
2023/01/02 11:10:23;;;;;;;5.45;3.00;;;;;;;;;;5034706;28;20040;-75
2023/01/02 11:12:49;;;;;;;5.03;3.08;;;;;;;;;;5027166;28;20377;-75
2023/01/02 11:15:26;;;;;;;10.85;3.10;;;;;;;;;;5026217;28;20064;-74
2023/01/02 11:17:52;;;;;;;6.78;3.78;;;;;;;;;;5029634;28;20030;-74
2023/01/02 11:20:31;;;;;;;4.72;2.70;;;;;;;;;;5033074;28;20041;-75
2023/01/02 11:22:58;;;;;;;5.32;3.15;;;;;;;;;;5024888;28;20029;-73
2023/01/02 11:25:26;;;;;;;6.28;2.38;;;;;;;;;;5034669;28;20048;-74
2023/01/02 11:27:55;;;;;;;6.05;2.78;;;;;;;;;;5030950;28;20389;-74
2023/01/02 11:30:31;;;;;;;3.50;2.53;;;;;;;;;;5036985;28;20055;-76
2023/01/02 11:33:26;;;;;;;4.35;2.75;;;;;;;;;;5036168;28;20136;-75
2023/01/02 11:35:57;;;;;;;8.10;2.40;;;;;;;;;;5024535;28;20042;-74
2023/01/02 11:38:25;;;;;;;3.70;2.53;;;;;;;;;;5028449;28;20452;-75
2023/01/02 11:40:56;;;;;;;3.63;2.60;;;;;;;;;;5025996;28;20088;-77
2023/01/02 11:46:09;;;;;;;6.68;2.97;;;;;;;;;;5034578;28;20510;-78
2023/01/02 11:48:51;;;;;;;4.13;2.50;;;;;;;;;;5028538;28;20104;-78
2023/01/02 11:51:18;;;;;;;6.30;2.70;;;;;;;;;;5031245;28;20365;-78
2023/01/02 11:53:48;;;;;;;3.67;2.47;;;;;;;;;;5036269;28;20029;-79
2023/01/02 11:56:19;;;;;;;5.53;1.97;;;;;;;;;;5022682;28;20028;-79
2023/01/02 11:59:05;;;;;;;3.75;2.50;;;;;;;;;;5027224;28;20689;-78
2023/01/02 12:01:47;;;;;;;3.15;2.20;;;;;;;;;;5027774;28;20077;-76
2023/01/02 12:04:13;;;;;;;3.22;2.08;;;;;;;;;;5025370;28;20494;-76
2023/01/02 12:06:47;;;;;;;8.85;2.60;;;;;;;;;;5028253;28;20025;-81
2023/01/02 12:09:14;;;;;;;4.90;2.10;;;;;;;;;;5021373;28;20118;-83
2023/01/02 12:11:45;;;;;;;2.15;1.75;;;;;;;;;;5027560;28;20025;-83
2023/01/02 12:14:11;;;;;;;;;;;;;;;;;;5031396;28;20017;-82
2023/01/02 12:16:40;;;;;;;4.65;2.70;;;;;;;;;;5025051;28;19932;-81
2023/01/02 12:19:09;;;;;;;5.18;2.40;;;;;;;;;;5034441;28;20024;-81
2023/01/02 12:21:57;;;;;;;2.30;1.80;;;;;;;;;;5035606;28;20460;-84
2023/01/02 12:24:31;;;;;;;28.15;2.70;;;;;;;;;;5024759;28;20138;-82
2023/01/02 12:26:57;;;;;;;16.30;2.75;;;;;;;;;;5022055;28;20076;-75
2023/01/02 12:29:33;;;;;;;3.58;1.92;;;;;;;;;;5024527;28;20029;-74
2023/01/02 12:32:19;;;;;;;8.40;2.20;;;;;;;;;;5019361;28;20844;-73
2023/01/02 12:35:07;;;;;;;6.97;1.80;;;;;;;;;;5022906;28;20508;-73
2023/01/02 12:37:51;;;;;;;4.90;1.80;;;;;;;;;;5030134;28;20051;-76
2023/01/02 12:40:17;;;;;;;2.83;1.65;;;;;;;;;;5025861;28;20029;-76
2023/01/02 12:42:53;;;;;;;2.30;1.30;;;;;;;;;;5018917;28;20029;-76
2023/01/02 12:45:35;;;;;;;4.47;1.60;;;;;;;;;;5024040;28;20037;-76
2023/01/02 12:48:01;;;;;;;3.53;1.45;;;;;;;;;;5026523;28;20033;-76
2023/01/02 12:50:37;;;;;;;3.30;1.40;;;;;;;;;;5026503;28;20034;-76
2023/01/02 12:53:20;;;;;;;3.60;1.63;;;;;;;;;;5024939;28;20512;-76
2023/01/02 12:56:02;;;;;;;2.88;1.80;;;;;;;;;;5025503;28;20535;-76
2023/01/02 12:58:38;;;;;;;2.58;1.90;;;;;;;;;;5016317;28;20033;-76
2023/01/02 13:01:23;;;;;;;5.40;2.05;;;;;;;;;;5025714;28;20037;-76
2023/01/02 13:04:04;;;;;;;6.88;1.48;;;;;;;;;;5020052;28;20040;-77
2023/01/02 13:06:42;;;;;;;5.57;2.33;;;;;;;;;;5020487;28;20477;-76
2023/01/02 13:09:14;;;;;;;1.75;1.23;;;;;;;;;;5022256;28;20053;-76
2023/01/02 13:11:44;;;;;;;4.22;1.65;;;;;;;;;;5024381;28;20033;-76
2023/01/02 13:14:15;;;;;;;2.78;1.48;;;;;;;;;;5019747;28;20226;-76
2023/01/02 13:16:41;;;;;;;1.98;1.30;;;;;;;;;;5018752;28;20033;-76
2023/01/02 13:19:17;;;;;;;4.55;1.17;;;;;;;;;;5018495;28;20038;-76
2023/01/02 13:21:49;;;;;;;2.10;1.42;;;;;;;;;;5024247;28;20079;-76
2023/01/02 13:24:18;;;;;;;2.47;1.20;;;;;;;;;;5017379;28;20029;-75
2023/01/02 13:26:44;;;;;;;2.50;1.45;;;;;;;;;;5019604;28;20063;-76
2023/01/02 13:29:10;;;;;;;2.75;1.40;;;;;;;;;;5023218;28;20397;-76
2023/01/02 13:31:38;;;;;;;4.28;1.60;;;;;;;;;;5017572;28;20086;-76
2023/01/02 13:34:14;;;;;;;1.52;1.30;;;;;;;;;;5022517;28;20045;-76
2023/01/02 13:36:44;;;;;;;1.70;1.30;;;;;;;;;;5019855;28;20289;-76
2023/01/02 13:39:22;;;;;;;2.97;1.40;;;;;;;;;;5017408;28;20040;-76
2023/01/02 13:44:53;;;;;;;3.47;1.60;;;;;;;;;;5011490;28;20067;-76
2023/01/02 13:47:47;;;;;;;1.25;1.15;;;;;;;;;;5018113;28;20116;-72
2023/01/02 13:50:21;;;;;;;1.85;1.30;;;;;;;;;;5017230;28;20439;-72
2023/01/02 13:53:03;;;;;;;4.60;1.52;;;;;;;;;;5018075;28;20748;-75
2023/01/02 13:55:30;;;;;;;3.78;1.30;;;;;;;;;;5009934;28;20057;-75
2023/01/02 13:58:19;;;;;;;2.00;1.02;;;;;;;;;;5021014;28;20112;-74
2023/01/02 14:00:55;;;;;;;2.67;1.52;;;;;;;;;;5009423;28;20600;-74
2023/01/02 14:03:21;;;;;;;2.75;1.35;;;;;;;;;;5013880;28;20136;-74
2023/01/02 14:05:59;;;;;;;5.18;1.35;;;;;;;;;;5011122;28;20747;-72
2023/01/02 14:08:28;;;;;;;4.00;1.20;;;;;;;;;;5016432;28;20626;-74
2023/01/02 14:11:13;;;;;;;6.03;1.33;;;;;;;;;;5012695;28;20105;-73
2023/01/02 14:13:53;;;;;;;4.95;1.55;;;;;;;;;;5009331;28;20030;-72
2023/01/02 14:16:22;;;;;;;1.45;1.25;;;;;;;;;;5010908;28;20037;-72
2023/01/02 14:19:07;;;;;;;4.68;1.50;;;;;;;;;;5010763;28;20053;-75
2023/01/02 14:21:37;;;;;;;1.85;1.23;;;;;;;;;;5013259;28;20099;-73
2023/01/02 14:24:03;;;;;;;6.05;1.92;;;;;;;;;;5012917;28;20161;-73
2023/01/02 14:26:32;;;;;;;6.80;1.92;;;;;;;;;;5012688;28;20037;-73
2023/01/02 14:28:59;;;;;;;7.03;2.90;;;;;;;;;;5014227;28;21773;-77
2023/01/02 14:31:32;;;;;;;5.60;3.00;;;;;;;;;;5020940;28;20555;-73
2023/01/02 14:33:59;;;;;;;7.15;3.35;;;;;;;;;;5020180;28;20041;-74
2023/01/02 14:36:36;;;;;;;12.20;3.95;;;;;;;;;;5028513;28;20432;-74
2023/01/02 14:39:02;;;;;;;7.88;3.67;;;;;;;;;;5022566;28;20086;-74
2023/01/02 14:44:46;;;;;;;11.73;4.25;;;;;;;;;;5019947;28;20796;-74
2023/01/02 14:47:13;;;;;;;11.43;4.10;;;;;;;;;;5012885;28;20038;-73
2023/01/02 14:49:40;;;;;;;7.65;4.15;;;;;;;;;;5014738;28;20534;-73
2023/01/02 14:52:10;;;;;;;10.27;5.18;;;;;;;;;;5017798;28;20029;-73
2023/01/02 14:54:41;;;;;;;12.38;5.40;;;;;;;;;;5019259;28;20022;-72
2023/01/02 14:57:07;;;;;;;;;;;;;;;;;;5018338;28;20028;-72
2023/01/02 14:59:41;;;;;;;8.55;5.00;;;;;;;;;;5016076;28;19916;-73
2023/01/02 15:02:18;;;;;;;13.18;5.93;;;;;;;;;;5013963;28;20021;-77
2023/01/02 15:04:52;;;;;;;13.88;5.82;;;;;;;;;;5019849;28;20029;-77
2023/01/02 15:07:26;;;;;;;15.60;7.20;;;;;;;;;;5017572;28;20029;-73
2023/01/02 15:09:58;;;;;;;14.38;6.57;;;;;;;;;;5014458;28;20049;-73
2023/01/02 15:15:12;;;;;;;10.43;5.97;;;;;;;;;;5020386;28;20619;-73